Time;durP1;ratioP1;P1;durP2;ratioP2;P2;SDS_P1;SDS_P2;PMS_P1;PMS_P2;Temp;Humidity;BMP_temperature;BMP_pressure;BME280_temperature;BME280_humidity;BME280_pressure;Samples;Min_cycle;Max_cycle;Signal;HPM_P1;HPM_P2
2021/10/29 00:01:49;;;;;;;26.53;12.67;;;10.20;99.90;;;;;;8262299;28;20315;-76
2021/10/29 00:05:49;;;;;;;20.70;13.27;;;10.20;99.90;;;;;;8279300;28;20695;-78
2021/10/29 00:09:51;;;;;;;24.83;14.07;;;10.20;99.90;;;;;;8273236;28;20344;-77
2021/10/29 00:13:51;;;;;;;29.43;12.30;;;10.20;99.90;;;;;;8286407;28;20203;-77
2021/10/29 00:17:52;;;;;;;19.93;10.60;;;10.10;99.90;;;;;;8268408;28;20439;-77
2021/10/29 00:21:53;;;;;;;24.00;11.63;;;10.10;99.90;;;;;;8285673;28;20217;-79
2021/10/29 00:25:54;;;;;;;24.30;12.80;;;10.10;99.90;;;;;;8295080;28;20977;-78
2021/10/29 00:29:55;;;;;;;22.17;11.90;;;10.10;99.90;;;;;;8260685;28;20440;-78
2021/10/29 00:33:56;;;;;;;22.10;12.00;;;10.10;99.90;;;;;;8280094;28;20296;-80
2021/10/29 00:37:56;;;;;;;24.10;11.67;;;10.00;99.90;;;;;;8279740;28;20184;-78
2021/10/29 00:41:57;;;;;;;20.67;11.80;;;10.10;99.90;;;;;;8265618;28;20642;-77
2021/10/29 00:45:58;;;;;;;31.10;13.43;;;10.00;99.90;;;;;;8270091;28;20191;-78
2021/10/29 00:49:58;;;;;;;26.03;11.90;;;10.00;99.90;;;;;;8285363;28;20453;-77
2021/10/29 00:53:59;;;;;;;19.27;10.80;;;10.00;99.90;;;;;;8279743;28;20272;-77
2021/10/29 00:58:00;;;;;;;32.73;13.63;;;10.00;99.90;;;;;;8262248;28;20341;-77
2021/10/29 01:02:01;;;;;;;21.43;11.67;;;10.00;99.90;;;;;;8274193;28;20240;-77
2021/10/29 01:06:02;;;;;;;27.67;12.70;;;9.90;99.90;;;;;;8273181;28;20502;-78
2021/10/29 01:10:05;;;;;;;21.30;11.73;;;9.90;99.90;;;;;;8267324;28;21079;-77
2021/10/29 01:14:06;;;;;;;28.00;13.90;;;9.80;99.90;;;;;;8257645;28;20482;-77
2021/10/29 01:18:06;;;;;;;19.23;10.60;;;9.80;99.90;;;;;;8261810;28;20450;-77
2021/10/29 01:22:07;;;;;;;24.53;11.67;;;9.80;99.90;;;;;;8268006;28;20707;-78
2021/10/29 01:26:11;;;;;;;28.33;13.20;;;9.70;99.90;;;;;;8273202;28;20199;-77
2021/10/29 01:30:13;;;;;;;22.83;12.00;;;9.70;99.90;;;;;;8269824;28;20188;-78
2021/10/29 01:34:14;;;;;;;28.73;11.83;;;9.70;99.90;;;;;;8265717;28;20451;-77
2021/10/29 01:38:15;;;;;;;25.50;12.23;;;9.70;99.90;;;;;;8268638;28;20535;-78
2021/10/29 01:42:16;;;;;;;28.97;12.67;;;9.70;99.90;;;;;;8279658;28;20202;-78
2021/10/29 01:46:17;;;;;;;23.13;10.80;;;9.70;99.90;;;;;;8276373;28;20188;-78
2021/10/29 01:50:17;;;;;;;25.53;12.00;;;9.70;99.90;;;;;;8276367;28;20455;-77
2021/10/29 01:54:18;;;;;;;26.77;13.23;;;9.70;99.90;;;;;;8259422;28;20279;-77
2021/10/29 01:58:18;;;;;;;26.33;11.57;;;9.60;99.90;;;;;;8286630;28;20746;-77
2021/10/29 02:02:19;;;;;;;23.10;11.83;;;9.60;99.90;;;;;;8275527;28;20546;-77
2021/10/29 02:06:20;;;;;;;28.50;11.67;;;9.60;99.90;;;;;;8276180;28;20193;-78
2021/10/29 02:10:20;;;;;;;24.23;12.57;;;9.50;99.90;;;;;;8259062;28;20556;-78
2021/10/29 02:14:21;;;;;;;26.83;12.80;;;9.60;99.90;;;;;;8257587;28;20272;-78
2021/10/29 02:18:22;;;;;;;25.93;11.70;;;9.50;99.90;;;;;;8271131;28;20267;-78
2021/10/29 02:22:22;;;;;;;24.57;11.30;;;9.50;99.90;;;;;;8258977;28;20238;-77
2021/10/29 02:26:24;;;;;;;27.10;13.10;;;9.50;99.90;;;;;;8263875;28;20196;-77
2021/10/29 02:30:24;;;;;;;27.47;11.80;;;9.50;99.90;;;;;;8276009;28;20187;-78
2021/10/29 02:34:25;;;;;;;20.03;11.17;;;9.50;99.90;;;;;;8271365;28;20443;-78
2021/10/29 02:38:26;;;;;;;28.17;10.97;;;9.50;99.90;;;;;;8255883;28;20687;-77
2021/10/29 02:42:26;;;;;;;38.10;14.00;;;9.50;99.90;;;;;;8271777;28;20188;-77
2021/10/29 02:46:27;;;;;;;24.30;12.90;;;9.50;99.90;;;;;;8269106;28;20192;-77
2021/10/29 02:50:27;;;;;;;20.33;10.37;;;9.50;99.90;;;;;;8283695;28;20241;-77
2021/10/29 02:54:28;;;;;;;33.30;13.20;;;9.50;99.90;;;;;;8274822;28;20816;-77
2021/10/29 02:58:31;;;;;;;32.23;15.37;;;9.50;99.90;;;;;;8254665;28;20271;-76
2021/10/29 03:02:33;;;;;;;36.57;16.10;;;9.50;99.90;;;;;;8269425;28;20358;-77
2021/10/29 03:06:34;;;;;;;27.47;15.43;;;9.50;99.90;;;;;;8272001;28;20440;-77
2021/10/29 03:10:35;;;;;;;39.67;17.40;;;9.50;99.90;;;;;;8270117;28;21036;-78
2021/10/29 03:14:35;;;;;;;30.13;13.87;;;9.50;99.90;;;;;;8260673;28;20446;-77
2021/10/29 03:18:36;;;;;;;30.47;17.80;;;9.60;99.90;;;;;;8261792;28;20217;-77
2021/10/29 03:22:37;;;;;;;28.70;14.87;;;9.50;99.90;;;;;;8284891;28;20195;-77
2021/10/29 03:26:38;;;;;;;39.13;16.73;;;9.50;99.90;;;;;;8257244;28;20216;-77
2021/10/29 03:30:39;;;;;;;39.83;16.67;;;9.50;99.90;;;;;;8279020;28;20958;-78
2021/10/29 03:34:39;;;;;;;45.23;15.87;;;9.50;99.90;;;;;;8277586;28;20223;-77
2021/10/29 03:38:50;;;;;;;28.93;15.73;;;9.50;99.90;;;;;;8275542;28;20674;-77
2021/10/29 03:47:01;;;;;;;34.10;15.37;;;9.40;99.90;;;;;;8276279;28;21018;-78
2021/10/29 03:51:14;;;;;;;22.53;13.30;;;9.40;99.90;;;;;;8282681;28;20942;-77
2021/10/29 03:55:14;;;;;;;38.80;16.67;;;9.40;99.90;;;;;;8279880;28;20457;-78
2021/10/29 03:59:15;;;;;;;32.30;14.97;;;9.40;99.90;;;;;;8277883;28;21108;-78
2021/10/29 04:03:16;;;;;;;30.90;13.80;;;9.40;99.90;;;;;;8280427;28;20231;-77
2021/10/29 04:07:17;;;;;;;41.40;18.60;;;9.40;99.90;;;;;;8260554;28;20483;-78
2021/10/29 04:11:23;;;;;;;27.03;14.40;;;9.40;99.90;;;;;;8261495;28;20573;-78
2021/10/29 04:15:24;;;;;;;32.27;14.30;;;9.40;99.90;;;;;;8273890;28;20294;-78
2021/10/29 04:19:25;;;;;;;35.50;15.80;;;9.40;99.90;;;;;;8272078;28;20565;-78
2021/10/29 04:23:26;;;;;;;30.63;13.90;;;9.50;99.90;;;;;;8283036;28;20474;-78
2021/10/29 04:27:31;;;;;;;33.63;13.97;;;9.40;99.90;;;;;;8271082;28;20214;-77
2021/10/29 04:31:32;;;;;;;30.53;15.03;;;9.50;99.90;;;;;;8276128;28;20195;-77
2021/10/29 04:35:37;;;;;;;26.67;13.30;;;9.50;99.90;;;;;;8282001;28;20443;-76
2021/10/29 04:39:38;;;;;;;22.50;10.63;;;9.60;99.90;;;;;;8279403;28;20263;-78
2021/10/29 04:43:40;;;;;;;21.63;12.83;;;9.60;99.90;;;;;;8277504;28;20488;-77
2021/10/29 04:47:41;;;;;;;29.00;12.27;;;9.60;99.90;;;;;;8255587;28;20435;-77
2021/10/29 04:51:43;;;;;;;23.67;12.00;;;9.70;99.90;;;;;;8284066;28;20538;-78
2021/10/29 04:55:44;;;;;;;25.57;13.30;;;9.70;99.90;;;;;;8283300;28;20592;-77
2021/10/29 04:59:44;;;;;;;22.77;11.40;;;9.70;99.90;;;;;;8279072;28;20480;-79
2021/10/29 05:03:45;;;;;;;22.60;12.30;;;9.80;99.90;;;;;;8243177;28;20225;-77
2021/10/29 05:07:46;;;;;;;18.20;10.17;;;9.80;99.90;;;;;;8236406;28;20619;-77
2021/10/29 05:11:47;;;;;;;25.63;9.27;;;9.90;99.90;;;;;;8248529;28;20551;-76
2021/10/29 05:15:47;;;;;;;16.73;10.30;;;9.90;99.90;;;;;;8241002;28;20200;-78
2021/10/29 05:19:48;;;;;;;26.77;12.30;;;9.90;99.90;;;;;;8259962;28;20209;-79
2021/10/29 05:23:48;;;;;;;20.30;10.07;;;10.00;99.90;;;;;;8255074;28;20185;-78
2021/10/29 05:27:49;;;;;;;18.03;9.70;;;9.90;99.90;;;;;;8247070;28;20189;-76
2021/10/29 05:31:51;;;;;;;22.83;11.52;;;10.00;99.90;;;;;;8249957;28;20455;-77
2021/10/29 05:35:51;;;;;;;17.83;9.13;;;10.00;99.90;;;;;;8248809;28;20193;-78
2021/10/29 05:39:52;;;;;;;18.63;9.20;;;10.00;99.90;;;;;;8243273;28;20847;-77
2021/10/29 05:43:53;;;;;;;14.07;9.40;;;10.00;99.90;;;;;;8245555;28;20671;-77
2021/10/29 05:47:55;;;;;;;19.53;10.73;;;9.90;99.90;;;;;;8247661;28;20267;-78
2021/10/29 05:51:57;;;;;;;18.00;9.53;;;9.90;99.90;;;;;;8250169;28;20203;-78
2021/10/29 05:55:57;;;;;;;22.37;9.43;;;9.80;99.90;;;;;;8245696;28;20487;-76
2021/10/29 05:59:59;;;;;;;21.27;9.70;;;9.80;99.90;;;;;;8233515;28;20484;-75
2021/10/29 06:03:59;;;;;;;19.17;10.23;;;9.80;99.90;;;;;;8253934;28;20233;-75
2021/10/29 06:08:00;;;;;;;19.43;9.60;;;9.80;99.90;;;;;;8241158;28;20436;-75
2021/10/29 06:12:01;;;;;;;16.53;9.13;;;9.80;99.90;;;;;;8237462;28;20456;-75
2021/10/29 06:16:02;;;;;;;13.67;7.40;;;9.70;99.90;;;;;;8236867;28;20448;-75
2021/10/29 06:20:04;;;;;;;16.90;7.97;;;9.70;99.90;;;;;;8240202;28;20475;-76
2021/10/29 06:24:09;;;;;;;17.10;9.67;;;9.70;99.90;;;;;;8240885;28;20312;-75
2021/10/29 06:32:20;;;;;;;25.70;9.37;;;9.80;99.90;;;;;;8245624;28;20543;-74
2021/10/29 06:36:20;;;;;;;20.23;10.13;;;9.70;99.90;;;;;;8243777;28;20439;-74
2021/10/29 06:40:21;;;;;;;20.10;8.73;;;9.80;99.90;;;;;;8237657;28;20243;-75
2021/10/29 06:44:28;;;;;;;11.20;9.30;;;9.90;99.90;;;;;;8239633;28;20252;-76
2021/10/29 07:01:22;;;;;;;22.53;10.27;;;10.60;99.90;;;;;;8238474;28;20468;-75
2021/10/29 07:11:33;;;;;;;20.80;10.10;;;10.70;99.90;;;;;;8277893;28;20482;-75
2021/10/29 07:40:02;;;;;;;16.23;8.80;;;11.10;99.60;;;;;;8271836;28;20474;-77
2021/10/29 07:44:12;;;;;;;15.33;7.80;;;11.10;99.50;;;;;;8283172;28;21177;-76
2021/10/29 07:48:13;;;;;;;23.40;10.40;;;11.20;99.40;;;;;;8261105;28;20448;-78
2021/10/29 07:52:16;;;;;;;28.97;14.90;;;11.20;99.40;;;;;;8272041;28;20459;-76
2021/10/29 07:56:17;;;;;;;23.40;11.57;;;11.30;99.40;;;;;;8271701;28;20195;-75
2021/10/29 08:00:20;;;;;;;43.07;18.23;;;11.40;99.40;;;;;;8267516;28;20554;-76
2021/10/29 08:04:22;;;;;;;19.50;9.27;;;11.50;99.30;;;;;;8258743;28;20238;-76
2021/10/29 08:08:22;;;;;;;20.57;11.63;;;11.60;99.20;;;;;;8260729;28;20444;-76
2021/10/29 08:12:23;;;;;;;23.50;12.73;;;11.70;99.10;;;;;;8258478;28;20453;-75
2021/10/29 08:16:24;;;;;;;13.70;7.60;;;11.80;99.00;;;;;;8257683;28;20954;-76
2021/10/29 08:20:25;;;;;;;18.23;9.00;;;12.00;98.90;;;;;;8282309;28;20206;-77
2021/10/29 08:24:26;;;;;;;12.23;8.43;;;12.20;98.60;;;;;;8280500;28;20432;-76
2021/10/29 08:28:27;;;;;;;10.60;8.37;;;12.40;98.40;;;;;;8266722;28;20233;-77
2021/10/29 08:32:27;;;;;;;12.80;7.40;;;12.70;98.20;;;;;;8280355;28;20469;-76
2021/10/29 08:36:28;;;;;;;11.00;6.20;;;13.10;97.70;;;;;;8281995;28;20552;-76
2021/10/29 08:40:29;;;;;;;12.40;7.63;;;13.70;96.70;;;;;;8281948;28;20294;-76
2021/10/29 08:44:31;;;;;;;9.50;6.07;;;14.20;96.00;;;;;;8281192;28;20800;-76
2021/10/29 08:48:36;;;;;;;6.23;5.67;;;14.60;95.20;;;;;;8282820;28;20390;-75
2021/10/29 08:52:39;;;;;;;7.53;5.17;;;14.90;94.60;;;;;;8277304;28;20574;-77
2021/10/29 08:56:40;;;;;;;14.17;6.63;;;15.10;94.60;;;;;;8268158;28;20452;-78
2021/10/29 09:00:44;;;;;;;8.73;5.20;;;15.80;93.80;;;;;;8267619;28;20470;-78
2021/10/29 09:09:08;;;;;;;5.40;4.43;;;17.20;91.80;;;;;;8277407;28;20459;-78
2021/10/29 09:34:28;;;;;;;2.47;2.27;;;20.40;82.10;;;;;;8282118;28;20417;-78
2021/10/29 09:38:29;;;;;;;3.80;3.50;;;21.00;79.10;;;;;;8283050;28;20414;-79
2021/10/29 09:42:35;;;;;;;4.43;2.50;;;21.60;76.70;;;;;;8262135;28;20282;-76
2021/10/29 09:46:58;;;;;;;3.10;2.40;;;22.00;74.00;;;;;;8282594;28;20188;-78
2021/10/29 09:51:05;;;;;;;3.67;2.03;;;22.10;72.60;;;;;;8264089;28;20443;-76
2021/10/29 09:59:07;;;;;;;2.33;2.13;;;21.90;72.90;;;;;;8283145;28;20474;-77
2021/10/29 10:03:08;;;;;;;2.37;2.27;;;22.00;71.90;;;;;;8279915;28;20450;-79
2021/10/29 10:07:09;;;;;;;3.00;1.90;;;22.00;72.10;;;;;;8254936;28;20200;-77
2021/10/29 10:11:11;;;;;;;2.67;2.47;;;22.00;70.90;;;;;;8263313;28;20220;-77
2021/10/29 10:15:13;;;;;;;4.53;2.97;;;22.00;70.70;;;;;;8281211;28;20185;-77
2021/10/29 10:19:15;;;;;;;5.70;3.90;;;21.70;70.40;;;;;;8281655;28;20511;-77
2021/10/29 10:23:24;;;;;;;2.90;2.30;;;21.40;70.70;;;;;;8278944;28;20447;-76
2021/10/29 10:40:21;;;;;;;2.00;1.90;;;21.80;70.80;;;;;;8281305;28;20443;-78
2021/10/29 10:45:06;;;;;;;4.73;2.57;;;22.10;68.60;;;;;;8276571;28;21028;-77
2021/10/29 10:49:13;;;;;;;2.20;2.10;;;22.10;68.90;;;;;;8277683;28;20475;-78
2021/10/29 10:53:47;;;;;;;2.27;2.17;;;21.90;68.90;;;;;;8279689;28;20966;-77
2021/10/29 10:58:04;;;;;;;2.80;2.33;;;21.80;69.00;;;;;;8272978;28;20501;-78
2021/10/29 11:07:08;;;;;;;2.00;1.90;;;21.50;69.50;;;;;;8281017;28;20443;-78
2021/10/29 11:11:17;;;;;;;2.40;1.87;;;21.40;69.10;;;;;;8268106;28;20424;-78
2021/10/29 11:15:24;;;;;;;2.20;1.83;;;21.40;69.40;;;;;;8266145;28;20451;-78
2021/10/29 11:19:33;;;;;;;2.27;2.07;;;21.40;69.60;;;;;;8278268;28;20769;-77
2021/10/29 11:23:35;;;;;;;3.27;2.37;;;21.20;69.20;;;;;;8277115;28;20444;-76
2021/10/29 11:27:39;;;;;;;2.90;2.50;;;21.20;70.20;;;;;;8295964;28;20424;-76
2021/10/29 11:31:49;;;;;;;2.30;2.10;;;21.20;69.60;;;;;;8279973;28;20443;-78
2021/10/29 11:36:04;;;;;;;2.80;2.30;;;21.10;69.80;;;;;;8268104;28;20435;-78
2021/10/29 11:40:06;;;;;;;2.43;2.10;;;21.10;69.80;;;;;;8276420;28;20475;-77
2021/10/29 11:44:13;;;;;;;2.80;2.20;;;20.90;70.50;;;;;;8287843;28;20447;-77
2021/10/29 11:48:14;;;;;;;3.33;1.77;;;21.00;70.70;;;;;;8269265;28;20935;-78
2021/10/29 11:52:15;;;;;;;3.93;2.60;;;20.90;70.10;;;;;;8285728;28;20466;-77
2021/10/29 12:01:36;;;;;;;2.27;1.97;;;20.80;70.60;;;;;;8262764;28;20235;-77
2021/10/29 12:09:31;;;;;;;2.30;2.10;;;20.90;70.80;;;;;;8280746;28;20895;-77
2021/10/29 12:13:41;;;;;;;2.97;2.43;;;21.10;70.70;;;;;;8283706;28;20466;-77
2021/10/29 12:18:07;;;;;;;2.10;1.90;;;21.20;71.40;;;;;;8276114;28;20820;-78
2021/10/29 12:26:18;;;;;;;1.87;1.77;;;21.30;70.90;;;;;;8281023;28;20459;-79
2021/10/29 12:30:27;;;;;;;3.53;2.10;;;21.40;70.10;;;;;;8271560;28;20441;-77
2021/10/29 12:34:46;;;;;;;2.10;1.90;;;21.40;69.60;;;;;;8266392;28;20443;-77
2021/10/29 12:51:58;;;;;;;3.83;2.10;;;21.80;69.50;;;;;;8280506;28;20531;-76
2021/10/29 13:04:54;;;;;;;3.53;1.77;;;22.50;69.10;;;;;;8277959;28;20497;-77
2021/10/29 13:08:54;;;;;;;2.50;2.00;;;22.60;67.90;;;;;;8270716;28;20548;-77
2021/10/29 13:16:57;;;;;;;2.20;2.00;;;22.40;67.80;;;;;;8278054;28;20280;-77
2021/10/29 13:38:20;;;;;;;3.37;2.17;;;22.30;66.50;;;;;;8327981;28;20810;-77
2021/10/29 14:04:08;;;;;;;6.00;2.33;;;22.00;68.10;;;;;;8323480;28;21534;-78
2021/10/29 14:29:21;;;;;;;4.87;2.33;;;21.60;68.50;;;;;;8320251;28;20459;-78
2021/10/29 14:33:27;;;;;;;2.40;2.20;;;21.60;68.40;;;;;;8300752;28;20450;-77
2021/10/29 14:37:37;;;;;;;2.33;2.20;;;21.50;68.50;;;;;;8297772;28;20987;-77
2021/10/29 14:41:42;;;;;;;4.90;4.50;;;21.40;68.40;;;;;;8316634;28;20463;-76
2021/10/29 14:45:54;;;;;;;2.67;2.00;;;21.20;69.00;;;;;;8297955;28;20460;-77
2021/10/29 15:32:38;;;;;;;2.40;2.20;;;20.20;71.50;;;;;;8322206;28;20449;-77
2021/10/29 15:45:16;;;;;;;3.07;2.43;;;19.80;72.30;;;;;;8320804;28;20496;-77
2021/10/29 15:53:17;;;;;;;4.90;3.10;;;19.50;73.00;;;;;;8319589;28;21047;-77
2021/10/29 15:57:27;;;;;;;2.57;2.37;;;19.40;73.40;;;;;;8324653;28;20221;-78
2021/10/29 16:18:44;;;;;;;3.53;2.87;;;17.70;81.50;;;;;;8312271;28;20549;-77
2021/10/29 16:22:45;;;;;;;4.07;3.43;;;17.50;82.50;;;;;;8324774;28;20485;-77
2021/10/29 16:26:48;;;;;;;4.10;3.53;;;17.30;83.10;;;;;;8309661;28;20187;-77
2021/10/29 16:30:50;;;;;;;6.07;3.63;;;17.20;83.80;;;;;;8315645;28;20458;-77
2021/10/29 16:34:50;;;;;;;5.25;3.58;;;17.00;84.50;;;;;;8311189;28;20437;-77
2021/10/29 16:38:51;;;;;;;5.70;4.30;;;17.00;85.00;;;;;;8296863;28;20270;-77
2021/10/29 16:42:51;;;;;;;9.03;5.07;;;16.90;85.30;;;;;;8294000;28;20198;-76
2021/10/29 16:46:52;;;;;;;5.70;4.50;;;16.80;85.70;;;;;;8288422;28;20193;-76
2021/10/29 16:50:54;;;;;;;6.57;4.40;;;16.70;86.10;;;;;;8309405;28;20184;-76
2021/10/29 16:54:54;;;;;;;8.23;5.60;;;16.60;86.40;;;;;;8304763;28;20190;-76
2021/10/29 16:58:55;;;;;;;8.80;6.53;;;16.60;86.90;;;;;;8313297;28;20472;-76
2021/10/29 17:02:57;;;;;;;6.30;4.47;;;16.50;87.20;;;;;;8302941;28;20317;-76
2021/10/29 17:06:57;;;;;;;6.50;4.83;;;16.40;87.60;;;;;;8284335;28;20455;-77
2021/10/29 17:10:58;;;;;;;7.00;5.40;;;16.30;88.10;;;;;;8311925;28;20440;-77
2021/10/29 17:14:58;;;;;;;7.70;5.13;;;16.20;88.40;;;;;;8318461;28;20177;-77
2021/10/29 17:18:59;;;;;;;5.83;5.20;;;16.20;88.90;;;;;;8326189;28;20183;-76
2021/10/29 17:23:01;;;;;;;5.30;4.73;;;16.10;89.30;;;;;;8306768;28;20185;-77
2021/10/29 17:27:02;;;;;;;8.27;4.93;;;16.00;89.60;;;;;;8309106;28;20470;-78
2021/10/29 17:31:02;;;;;;;6.17;4.90;;;16.00;89.90;;;;;;8288450;28;20443;-75
2021/10/29 17:35:04;;;;;;;7.03;4.90;;;16.00;90.00;;;;;;8306452;28;20191;-77
2021/10/29 17:39:07;;;;;;;6.87;4.80;;;16.00;90.00;;;;;;8300091;28;20203;-78
2021/10/29 17:43:07;;;;;;;9.00;5.57;;;16.00;90.10;;;;;;8306659;28;20471;-76
2021/10/29 17:47:09;;;;;;;9.03;5.53;;;15.90;90.20;;;;;;8310912;28;20447;-76
2021/10/29 17:51:10;;;;;;;8.43;6.50;;;15.80;90.30;;;;;;8289570;28;20539;-76
2021/10/29 17:55:12;;;;;;;12.07;6.60;;;15.80;90.40;;;;;;8289217;28;20446;-77
2021/10/29 17:59:13;;;;;;;9.13;6.80;;;15.80;90.40;;;;;;8303580;28;21109;-78
2021/10/29 18:03:14;;;;;;;7.07;5.40;;;15.70;90.50;;;;;;8292031;28;20632;-77
2021/10/29 18:07:15;;;;;;;19.40;6.43;;;15.70;90.60;;;;;;8311316;28;20211;-77
2021/10/29 18:11:16;;;;;;;8.13;5.30;;;15.60;90.70;;;;;;8307371;28;20188;-77
2021/10/29 18:15:17;;;;;;;8.70;6.57;;;15.60;90.80;;;;;;8308849;28;20477;-77
2021/10/29 18:19:18;;;;;;;9.63;6.13;;;15.60;90.90;;;;;;8324084;28;20477;-77
2021/10/29 18:23:18;;;;;;;11.63;5.70;;;15.60;90.90;;;;;;8307260;28;20656;-77
2021/10/29 18:27:20;;;;;;;12.50;6.63;;;15.60;91.00;;;;;;8297316;28;20172;-77
2021/10/29 18:31:20;;;;;;;8.27;5.47;;;15.60;91.00;;;;;;8301234;28;20203;-76
2021/10/29 18:35:22;;;;;;;9.07;5.33;;;15.60;91.00;;;;;;8301393;28;20500;-75
2021/10/29 18:39:23;;;;;;;8.27;5.77;;;15.50;91.00;;;;;;8313931;28;20204;-77
2021/10/29 18:43:24;;;;;;;13.30;6.80;;;15.50;91.10;;;;;;8304672;28;20438;-77
2021/10/29 18:47:24;;;;;;;6.63;5.67;;;15.50;91.20;;;;;;8288942;28;20658;-76
2021/10/29 18:51:25;;;;;;;8.23;5.87;;;15.50;91.20;;;;;;8313046;28;20195;-76
2021/10/29 18:55:26;;;;;;;9.67;7.17;;;15.40;91.20;;;;;;8301670;28;20238;-76
2021/10/29 18:59:26;;;;;;;11.77;6.80;;;15.40;91.20;;;;;;8314200;28;20265;-76
2021/10/29 19:03:27;;;;;;;8.77;6.27;;;15.50;91.20;;;;;;8309791;28;20698;-77
2021/10/29 19:07:29;;;;;;;8.70;5.63;;;15.50;91.20;;;;;;8305879;28;20194;-76
2021/10/29 19:11:48;;;;;;;8.83;6.93;;;15.50;91.10;;;;;;8292653;28;20199;-75
2021/10/29 19:15:49;;;;;;;9.07;6.23;;;15.60;91.20;;;;;;8283930;28;20620;-77
2021/10/29 19:19:50;;;;;;;9.10;6.63;;;15.60;91.10;;;;;;8297597;28;20474;-77
2021/10/29 19:23:51;;;;;;;9.93;7.00;;;15.60;91.20;;;;;;8308076;28;20454;-78
2021/10/29 19:27:52;;;;;;;9.93;6.47;;;15.50;91.20;;;;;;8316849;28;20437;-76
2021/10/29 19:31:53;;;;;;;10.73;6.00;;;15.60;91.10;;;;;;8296879;28;20607;-76
2021/10/29 19:36:00;;;;;;;9.13;6.37;;;15.60;91.20;;;;;;8323955;28;20491;-76
2021/10/29 19:40:11;;;;;;;8.53;7.07;;;15.50;91.20;;;;;;8297040;28;20467;-77
2021/10/29 19:44:12;;;;;;;9.40;5.50;;;15.50;91.20;;;;;;8297157;28;20447;-77
2021/10/29 19:48:13;;;;;;;12.80;5.90;;;15.50;91.30;;;;;;8309967;28;20446;-77
2021/10/29 19:52:14;;;;;;;8.07;6.63;;;15.50;91.30;;;;;;8306984;28;20836;-77
2021/10/29 19:56:15;;;;;;;8.07;5.60;;;15.50;91.20;;;;;;8308512;28;20454;-77
2021/10/29 20:00:15;;;;;;;13.20;6.47;;;15.50;91.20;;;;;;8306479;28;20217;-76
2021/10/29 20:04:16;;;;;;;9.73;6.43;;;15.40;91.20;;;;;;8315744;28;20228;-78
2021/10/29 20:08:18;;;;;;;12.57;5.97;;;15.40;91.20;;;;;;8309597;28;20180;-77
2021/10/29 20:12:19;;;;;;;8.00;6.93;;;15.40;91.20;;;;;;8313759;28;20527;-76
2021/10/29 20:16:20;;;;;;;11.53;7.77;;;15.40;91.20;;;;;;8316462;28;20453;-78
2021/10/29 20:20:21;;;;;;;12.40;7.70;;;15.30;91.20;;;;;;8323297;28;20238;-78
2021/10/29 20:24:21;;;;;;;10.13;7.07;;;15.30;91.20;;;;;;8299008;28;20442;-77
2021/10/29 20:28:22;;;;;;;8.47;6.43;;;15.20;91.20;;;;;;8314551;28;20742;-76
2021/10/29 20:32:22;;;;;;;7.77;6.17;;;15.20;91.20;;;;;;8326992;28;20195;-75
2021/10/29 20:36:24;;;;;;;14.63;6.97;;;15.10;91.30;;;;;;8308198;28;20286;-77
2021/10/29 20:40:29;;;;;;;11.40;8.03;;;15.10;91.30;;;;;;8314733;28;20203;-77
2021/10/29 20:44:29;;;;;;;8.87;7.13;;;15.00;91.40;;;;;;8305032;28;20489;-77
2021/10/29 20:48:30;;;;;;;8.67;7.37;;;14.90;91.50;;;;;;8314524;28;20438;-78
2021/10/29 20:52:31;;;;;;;12.87;7.30;;;14.80;91.60;;;;;;8320579;28;20301;-76
2021/10/29 20:56:33;;;;;;;11.87;7.57;;;14.80;91.70;;;;;;8320256;28;21067;-77
2021/10/29 21:00:33;;;;;;;10.70;7.23;;;14.80;91.80;;;;;;8317925;28;20463;-76
2021/10/29 21:04:34;;;;;;;14.17;7.97;;;14.70;91.80;;;;;;8315410;28;20462;-77
2021/10/29 21:08:35;;;;;;;16.93;6.50;;;14.70;92.00;;;;;;8313003;28;20274;-76
2021/10/29 21:12:36;;;;;;;12.13;8.00;;;14.60;92.10;;;;;;8293253;28;20439;-76
2021/10/29 21:16:38;;;;;;;9.23;7.13;;;14.60;92.20;;;;;;8290884;28;20233;-76
2021/10/29 21:20:39;;;;;;;13.43;7.80;;;14.60;92.20;;;;;;8317304;28;20261;-78
2021/10/29 21:24:39;;;;;;;12.77;6.93;;;14.60;92.30;;;;;;8310163;28;20434;-76
2021/10/29 21:28:40;;;;;;;15.27;7.97;;;14.50;92.30;;;;;;8293996;28;20180;-76
2021/10/29 21:32:41;;;;;;;19.10;7.23;;;14.50;92.30;;;;;;8306946;28;20231;-76
2021/10/29 21:36:41;;;;;;;10.87;7.73;;;14.50;92.40;;;;;;8312765;28;20226;-76
2021/10/29 21:40:42;;;;;;;12.80;7.07;;;14.50;92.30;;;;;;8302744;28;20211;-77
2021/10/29 21:44:47;;;;;;;10.77;7.90;;;14.40;92.30;;;;;;8303111;28;20188;-77
2021/10/29 21:48:47;;;;;;;9.90;8.00;;;14.40;92.30;;;;;;8315310;28;20176;-76
2021/10/29 21:52:48;;;;;;;11.13;6.90;;;14.30;92.30;;;;;;8315599;28;22288;-78
2021/10/29 21:56:49;;;;;;;13.40;7.80;;;14.30;92.20;;;;;;8320066;28;20515;-78
2021/10/29 22:00:50;;;;;;;11.43;7.77;;;14.20;92.20;;;;;;8323159;28;20216;-77
2021/10/29 22:04:53;;;;;;;12.20;7.07;;;14.20;92.30;;;;;;8326285;28;20253;-77
2021/10/29 22:08:54;;;;;;;11.10;7.40;;;14.20;92.40;;;;;;8317627;28;20435;-76
2021/10/29 22:12:58;;;;;;;13.60;8.33;;;14.10;92.40;;;;;;8305485;28;20531;-75
2021/10/29 22:16:59;;;;;;;11.77;8.50;;;14.10;92.40;;;;;;8309918;28;20877;-76
2021/10/29 22:21:01;;;;;;;8.87;6.47;;;14.00;92.50;;;;;;8331144;28;20478;-75
2021/10/29 22:25:04;;;;;;;10.43;7.60;;;14.00;92.60;;;;;;8312510;28;20294;-77
2021/10/29 22:29:06;;;;;;;15.43;8.17;;;14.00;92.70;;;;;;8316836;28;20945;-77
2021/10/29 22:33:06;;;;;;;13.93;7.90;;;13.90;92.80;;;;;;8315817;28;20438;-77
2021/10/29 22:37:07;;;;;;;10.60;7.70;;;13.90;92.90;;;;;;8297176;28;20967;-77
2021/10/29 22:41:08;;;;;;;15.70;7.63;;;13.90;93.00;;;;;;8313864;28;20211;-77
2021/10/29 22:45:09;;;;;;;11.57;8.40;;;13.80;93.10;;;;;;8306827;28;20285;-76
2021/10/29 22:49:10;;;;;;;13.03;7.23;;;13.70;93.20;;;;;;8311047;28;20790;-77
2021/10/29 22:53:12;;;;;;;12.17;7.70;;;13.70;93.30;;;;;;8313902;28;20191;-76
2021/10/29 22:57:12;;;;;;;13.40;7.97;;;13.60;93.30;;;;;;8319246;28;20324;-76
2021/10/29 23:01:13;;;;;;;11.23;7.17;;;13.60;93.30;;;;;;8309000;28;20999;-77
2021/10/29 23:05:16;;;;;;;10.03;6.10;;;13.60;93.40;;;;;;8279821;28;20240;-77
2021/10/29 23:09:17;;;;;;;12.83;7.03;;;13.60;93.40;;;;;;8276158;28;20304;-77
2021/10/29 23:13:18;;;;;;;10.13;7.90;;;13.50;93.50;;;;;;8282997;28;20820;-78
2021/10/29 23:17:18;;;;;;;13.03;7.10;;;13.40;93.60;;;;;;8280404;28;20639;-77
2021/10/29 23:21:19;;;;;;;15.47;8.60;;;13.30;93.70;;;;;;8274367;28;20213;-76
2021/10/29 23:25:20;;;;;;;15.57;7.87;;;13.20;93.80;;;;;;8271685;28;20580;-77
2021/10/29 23:29:21;;;;;;;10.17;6.47;;;13.20;93.80;;;;;;8283876;28;20465;-77
2021/10/29 23:33:21;;;;;;;13.30;6.60;;;13.10;93.90;;;;;;8278399;28;20187;-77
2021/10/29 23:37:22;;;;;;;11.97;5.87;;;13.10;94.00;;;;;;8286493;28;20188;-77
2021/10/29 23:41:23;;;;;;;6.77;6.00;;;13.10;94.20;;;;;;8287958;28;20264;-76
2021/10/29 23:45:23;;;;;;;15.63;6.60;;;13.00;94.40;;;;;;8287230;28;20192;-76
2021/10/29 23:49:24;;;;;;;8.97;5.77;;;13.00;94.60;;;;;;8291476;28;20196;-76
2021/10/29 23:53:31;;;;;;;5.80;4.43;;;13.10;94.70;;;;;;8283983;28;20188;-77
2021/10/29 23:57:31;;;;;;;9.90;4.30;;;13.20;94.70;;;;;;8286686;28;20183;-76
